createdAt,value
2019-02-26T00:00:02.408Z,47.11
2019-02-26T00:01:23.103Z,47.2
2019-02-26T00:02:36.293Z,47.39
2019-02-26T00:03:49.648Z,47.39
2019-02-26T00:05:03.419Z,47.39
2019-02-26T00:06:16.044Z,47.39
2019-02-26T00:07:34.730Z,47.78
2019-02-26T00:08:47.169Z,47.58
2019-02-26T00:10:07.916Z,47.11
2019-02-26T00:11:18.016Z,47.2
2019-02-26T00:12:38.631Z,47.49
2019-02-26T00:13:52.313Z,48.16
2019-02-26T00:15:05.166Z,48.16
2019-02-26T00:16:20.374Z,47.78
2019-02-26T00:17:30.704Z,48.06
2019-02-26T00:18:50.921Z,47.87
2019-02-26T00:20:10.224Z,48.25
2019-02-26T00:21:28.607Z,48.16
2019-02-26T00:22:41.434Z,48.25
2019-02-26T00:23:53.328Z,48.06
2019-02-26T00:25:08.421Z,47.78
2019-02-26T00:26:25.519Z,47.68
2019-02-26T00:27:38.782Z,48.06
2019-02-26T00:28:52.000Z,47.78
2019-02-26T00:30:07.456Z,48.06
2019-02-26T00:31:28.148Z,48.06
2019-02-26T00:32:40.757Z,48.06
2019-02-26T00:33:50.878Z,48.06
2019-02-26T00:35:04.235Z,48.54
2019-02-26T00:36:16.158Z,48.06
2019-02-26T00:37:28.403Z,48.44
2019-02-26T00:38:42.273Z,48.54
2019-02-26T00:39:56.356Z,48.35
2019-02-26T00:41:08.532Z,48.25
2019-02-26T00:42:24.199Z,48.32
2019-02-26T00:43:40.975Z,48.54
2019-02-26T00:45:00.746Z,48.54
2019-02-26T00:46:15.449Z,48.71
2019-02-26T00:47:34.370Z,48.71
2019-02-26T00:48:52.404Z,48.51
2019-02-26T00:50:14.180Z,48.8
2019-02-26T00:51:26.987Z,48.92
2019-02-26T00:52:39.272Z,48.8
2019-02-26T00:53:53.235Z,48.63
2019-02-26T00:55:10.053Z,49.08
2019-02-26T00:56:22.757Z,48.82
2019-02-26T00:57:43.532Z,48.82
2019-02-26T00:58:53.627Z,48.99
2019-02-26T01:00:07.572Z,49.08
2019-02-26T01:01:23.724Z,49.18
2019-02-26T01:02:33.944Z,48.99
2019-02-26T01:03:47.516Z,49.37
2019-02-26T01:04:59.702Z,49.18
2019-02-26T01:06:16.003Z,49.65
2019-02-26T01:07:31.041Z,49.65
2019-02-26T01:08:44.811Z,49.56
2019-02-26T01:09:59.033Z,49.56
2019-02-26T01:11:10.849Z,49.85
2019-02-26T01:12:24.126Z,49.46
2019-02-26T01:13:38.647Z,49.56
2019-02-26T01:14:50.562Z,49.65
2019-02-26T01:16:00.664Z,49.75
2019-02-26T01:17:14.659Z,49.75
2019-02-26T01:18:28.957Z,49.94
2019-02-26T01:19:42.891Z,50.23
2019-02-26T01:20:57.203Z,50.13
2019-02-26T01:22:11.912Z,50.7
2019-02-26T01:23:26.613Z,50.7
2019-02-26T01:24:36.890Z,50.51
2019-02-26T01:25:46.992Z,50.6
2019-02-26T01:26:59.619Z,50.42
2019-02-26T01:28:09.725Z,50.04
2019-02-26T01:29:32.196Z,50.13
2019-02-26T01:30:42.203Z,50.79
2019-02-26T01:32:02.139Z,50.89
2019-02-26T01:33:19.006Z,50.79
2019-02-26T01:34:38.263Z,50.51
2019-02-26T01:35:57.829Z,50.51
2019-02-26T01:37:12.422Z,50.13
2019-02-26T01:38:24.385Z,50.51
2019-02-26T01:39:35.611Z,50.51
2019-02-26T01:40:56.751Z,50.89
2019-02-26T01:42:06.878Z,50.6
2019-02-26T01:43:27.554Z,50.89
2019-02-26T01:44:42.017Z,51.08
2019-02-26T01:45:55.350Z,50.99
2019-02-26T01:47:07.228Z,50.99
2019-02-26T01:48:20.536Z,51.37
2019-02-26T01:49:31.083Z,50.99
2019-02-26T01:50:44.431Z,51.56
2019-02-26T01:51:56.955Z,51.84
2019-02-26T01:53:12.000Z,51.84
2019-02-26T01:54:28.192Z,51.46
2019-02-26T01:55:48.300Z,51.84
2019-02-26T01:57:00.275Z,51.65
2019-02-26T01:58:18.446Z,51.62
2019-02-26T01:59:28.547Z,52.22
2019-02-26T02:00:43.726Z,52.01
2019-02-26T02:01:56.096Z,51.82
2019-02-26T02:03:06.281Z,52.03
2019-02-26T02:04:19.552Z,51.75
2019-02-26T02:05:32.120Z,52.03
2019-02-26T02:06:43.858Z,52.03
2019-02-26T02:07:56.132Z,51.84
2019-02-26T02:09:09.256Z,51.84
2019-02-26T02:10:28.086Z,51.75
2019-02-26T02:11:40.710Z,51.93
2019-02-26T02:12:50.922Z,52.03
2019-02-26T02:14:12.717Z,51.75
2019-02-26T02:15:26.316Z,51.84
2019-02-26T02:16:38.658Z,51.75
2019-02-26T02:17:48.766Z,51.65
2019-02-26T02:19:04.267Z,51.93
2019-02-26T02:20:23.294Z,51.65
2019-02-26T02:21:35.685Z,51.75
2019-02-26T02:22:46.974Z,51.75
2019-02-26T02:23:58.978Z,51.65
2019-02-26T02:25:17.634Z,51.75
2019-02-26T02:26:27.734Z,51.84
2019-02-26T02:27:38.031Z,52.13
2019-02-26T02:28:50.555Z,52.32
2019-02-26T02:30:00.650Z,52.22
2019-02-26T02:31:17.456Z,52.29
2019-02-26T02:32:37.189Z,52.13
2019-02-26T02:33:53.309Z,52.1
2019-02-26T02:35:07.408Z,52.01
2019-02-26T02:36:26.680Z,52.32
2019-02-26T02:37:36.922Z,52.32
2019-02-26T02:38:47.039Z,52.41
2019-02-26T02:39:57.154Z,52.22
2019-02-26T02:41:07.252Z,52.22
2019-02-26T02:42:21.988Z,52.32
2019-02-26T02:43:32.228Z,51.75
2019-02-26T02:44:46.822Z,51.75
2019-02-26T02:46:01.585Z,51.65
2019-02-26T02:47:13.782Z,51.84
2019-02-26T02:48:23.893Z,51.65
2019-02-26T02:49:37.180Z,51.93
2019-02-26T02:50:51.515Z,51.75
2019-02-26T02:52:08.933Z,51.84
2019-02-26T02:53:24.500Z,51.65
2019-02-26T02:54:43.945Z,51.56
2019-02-26T02:55:57.266Z,51.46
2019-02-26T02:57:12.930Z,51.37
2019-02-26T02:58:28.597Z,50.99
2019-02-26T02:59:42.205Z,52.03
2019-02-26T03:00:56.990Z,51.84
2019-02-26T03:02:09.317Z,51.65
2019-02-26T03:03:28.163Z,51.75
2019-02-26T03:04:38.270Z,51.84
2019-02-26T03:05:48.417Z,51.65
2019-02-26T03:07:00.615Z,52.13
2019-02-26T03:08:16.186Z,52.22
2019-02-26T03:09:31.582Z,52.13
2019-02-26T03:10:48.810Z,52.2
2019-02-26T03:11:58.916Z,52.2
2019-02-26T03:13:09.042Z,52.58
2019-02-26T03:14:24.049Z,52.58
2019-02-26T03:15:41.821Z,52.67
2019-02-26T03:16:58.270Z,52.76
2019-02-26T03:18:16.858Z,52.48
2019-02-26T03:19:27.063Z,52.39
2019-02-26T03:20:44.488Z,52.39
2019-02-26T03:21:59.517Z,52.29
2019-02-26T03:23:16.725Z,53.05
2019-02-26T03:24:33.773Z,52.76
2019-02-26T03:25:49.787Z,53.05
2019-02-26T03:27:02.396Z,52.96
2019-02-26T03:28:12.499Z,53.24
2019-02-26T03:29:22.607Z,52.96
2019-02-26T03:30:43.769Z,53.53
2019-02-26T03:31:57.913Z,53.53
2019-02-26T03:33:08.073Z,53.63
2019-02-26T03:34:26.775Z,53.72
2019-02-26T03:35:36.917Z,53.53
2019-02-26T03:36:48.284Z,54
2019-02-26T03:38:03.566Z,54.1
2019-02-26T03:39:13.786Z,54.1
2019-02-26T03:40:29.819Z,54
2019-02-26T03:41:43.158Z,54.1
2019-02-26T03:43:01.317Z,54.48
2019-02-26T03:44:19.265Z,54.57
2019-02-26T03:45:33.247Z,54.38
2019-02-26T03:46:43.349Z,54.45
2019-02-26T03:47:55.321Z,54.64
2019-02-26T03:49:06.396Z,54.38
2019-02-26T03:50:16.511Z,54.36
2019-02-26T03:51:29.434Z,54.57
2019-02-26T03:52:44.574Z,54.48
2019-02-26T03:53:54.752Z,54.48
2019-02-26T03:55:08.798Z,54.57
2019-02-26T03:56:24.495Z,54.38
2019-02-26T03:57:34.588Z,54.77
2019-02-26T03:59:00.129Z,55.02
2019-02-26T04:00:19.837Z,55.02
2019-02-26T04:01:30.407Z,55.11
2019-02-26T04:02:46.044Z,55.21
2019-02-26T04:04:02.836Z,55.69
2019-02-26T04:05:15.496Z,55.78
2019-02-26T04:06:25.602Z,55.69
2019-02-26T04:07:41.313Z,55.69
2019-02-26T04:08:58.583Z,55.69
2019-02-26T04:10:08.691Z,55.59
2019-02-26T04:11:22.721Z,55.78
2019-02-26T04:12:41.770Z,56.07
2019-02-26T04:14:01.187Z,56.16
2019-02-26T04:15:15.402Z,56.16
2019-02-26T04:16:37.770Z,56.07
2019-02-26T04:17:51.121Z,56.07
2019-02-26T04:19:01.312Z,56.07
2019-02-26T04:20:16.384Z,56.45
2019-02-26T04:21:30.116Z,56.89
2019-02-26T04:22:46.949Z,56.54
2019-02-26T04:24:05.809Z,56.63
2019-02-26T04:25:22.075Z,56.89
2019-02-26T04:26:39.474Z,56.8
2019-02-26T04:27:49.576Z,56.63
2019-02-26T04:29:05.387Z,56.26
2019-02-26T04:30:18.938Z,56.16
2019-02-26T04:31:29.111Z,56.26
2019-02-26T04:32:43.530Z,56.26
2019-02-26T04:34:01.644Z,56.26
2019-02-26T04:35:14.088Z,56.16
2019-02-26T04:36:24.889Z,55.97
2019-02-26T04:37:38.643Z,55.97
2019-02-26T04:38:52.924Z,55.97
2019-02-26T04:40:08.272Z,56.45
2019-02-26T04:41:22.012Z,56.45
2019-02-26T04:42:32.620Z,56.23
2019-02-26T04:43:52.435Z,56.16
2019-02-26T04:45:11.980Z,56.8
2019-02-26T04:46:22.112Z,56.54
2019-02-26T04:47:40.624Z,56.07
2019-02-26T04:49:00.533Z,56.42
2019-02-26T04:50:11.576Z,56.26
2019-02-26T04:51:29.049Z,56.26
2019-02-26T04:52:46.071Z,56.16
2019-02-26T04:54:02.098Z,56.8
2019-02-26T04:55:12.303Z,56.99
2019-02-26T04:56:22.420Z,57.09
2019-02-26T04:57:48.490Z,57.46
2019-02-26T04:59:03.456Z,57.75
2019-02-26T05:00:20.026Z,57.84
2019-02-26T05:01:41.296Z,58.22
2019-02-26T05:02:59.896Z,58.32
2019-02-26T05:04:16.571Z,58.22
2019-02-26T05:05:31.137Z,57.75
2019-02-26T05:06:44.977Z,58.32
2019-02-26T05:07:55.159Z,58.32
2019-02-26T05:09:10.939Z,58.41
2019-02-26T05:10:24.357Z,58.32
2019-02-26T05:11:43.175Z,58.32
2019-02-26T05:12:57.775Z,58.41
2019-02-26T05:14:21.368Z,58.51
2019-02-26T05:15:35.362Z,58.51
2019-02-26T05:16:46.675Z,58.8
2019-02-26T05:17:56.817Z,58.89
2019-02-26T05:19:06.951Z,58.98
2019-02-26T05:20:24.568Z,58.41
2019-02-26T05:21:40.473Z,58.61
2019-02-26T05:22:52.014Z,58.61
2019-02-26T05:24:09.314Z,58.61
2019-02-26T05:25:26.767Z,58.7
2019-02-26T05:26:43.440Z,58.61
2019-02-26T05:27:53.567Z,58.7
2019-02-26T05:29:03.669Z,59.17
2019-02-26T05:30:20.010Z,58.98
2019-02-26T05:31:35.854Z,59.27
2019-02-26T05:32:51.872Z,59.08
2019-02-26T05:34:12.405Z,59.27
2019-02-26T05:35:30.499Z,58.98
2019-02-26T05:36:48.755Z,59.27
2019-02-26T05:38:04.114Z,58.89
2019-02-26T05:39:21.558Z,58.61
2019-02-26T05:40:42.606Z,58.13
2019-02-26T05:42:03.861Z,58.61
2019-02-26T05:43:15.913Z,58.51
2019-02-26T05:44:31.769Z,58.89
2019-02-26T05:45:41.890Z,58.89
2019-02-26T05:47:01.834Z,58.89
2019-02-26T05:48:12.607Z,58.8
2019-02-26T05:49:32.127Z,58.32
2019-02-26T05:50:51.078Z,58.8
2019-02-26T05:52:09.710Z,58.7
2019-02-26T05:53:19.842Z,58.7
2019-02-26T05:54:29.966Z,58.7
2019-02-26T05:55:42.182Z,58.8
2019-02-26T05:57:02.180Z,58.7
2019-02-26T05:58:38.660Z,58.89
2019-02-26T05:59:52.463Z,58.89
2019-02-26T06:01:02.565Z,58.8
2019-02-26T06:02:16.114Z,58.89
2019-02-26T06:03:30.087Z,58.7
2019-02-26T06:04:46.548Z,58.41
2019-02-26T06:06:00.314Z,58.7
2019-02-26T06:07:10.612Z,58.89
2019-02-26T06:08:36.254Z,58.51
2019-02-26T06:09:53.607Z,58.8
2019-02-26T06:11:06.915Z,58.89
2019-02-26T06:12:19.975Z,59.46
2019-02-26T06:13:34.472Z,59.36
2019-02-26T06:14:48.651Z,59.55
2019-02-26T06:16:09.985Z,59.55
2019-02-26T06:17:22.660Z,59.93
2019-02-26T06:18:32.768Z,59.74
2019-02-26T06:19:49.018Z,60
2019-02-26T06:21:03.491Z,60.13
2019-02-26T06:22:21.250Z,59.91
2019-02-26T06:23:39.741Z,59.55
2019-02-26T06:24:54.906Z,59.81
2019-02-26T06:26:21.495Z,59.71
2019-02-26T06:27:41.174Z,59.81
2019-02-26T06:28:53.322Z,59.81
2019-02-26T06:30:09.867Z,59.43
2019-02-26T06:31:25.053Z,59.62
2019-02-26T06:32:39.621Z,59.71
2019-02-26T06:33:53.161Z,60.19
2019-02-26T06:35:16.068Z,60.13
2019-02-26T06:36:30.428Z,60
2019-02-26T06:37:42.832Z,60.28
2019-02-26T06:38:56.358Z,60.47
2019-02-26T06:40:11.422Z,60.88
2019-02-26T06:41:21.548Z,60.31
2019-02-26T06:42:35.508Z,60.13
2019-02-26T06:43:53.140Z,60.03
2019-02-26T06:45:05.627Z,59.84
2019-02-26T06:46:21.263Z,59.93
2019-02-26T06:47:36.332Z,59.93
2019-02-26T06:48:48.584Z,59.93
2019-02-26T06:49:58.694Z,59.74
2019-02-26T06:51:15.547Z,59.55
2019-02-26T06:52:39.852Z,59.65
2019-02-26T06:53:58.766Z,59.55
2019-02-26T06:55:10.638Z,59.36
2019-02-26T06:56:20.880Z,59.46
2019-02-26T06:57:33.181Z,59.27
2019-02-26T06:58:49.981Z,59.27
2019-02-26T07:00:04.209Z,59.46
2019-02-26T07:01:16.945Z,59.46
2019-02-26T07:02:31.183Z,59.36
2019-02-26T07:03:43.387Z,59.74
2019-02-26T07:04:53.496Z,59.65
2019-02-26T07:06:06.641Z,59.36
2019-02-26T07:07:17.081Z,59.46
2019-02-26T07:08:30.942Z,59.46
2019-02-26T07:09:43.882Z,59.36
2019-02-26T07:10:54.112Z,59.74
2019-02-26T07:12:04.227Z,59.46
2019-02-26T07:13:16.533Z,59.65
2019-02-26T07:14:30.165Z,59.36
2019-02-26T07:15:42.924Z,59.27
2019-02-26T07:16:56.501Z,59.55
2019-02-26T07:18:14.836Z,59.55
2019-02-26T07:19:30.775Z,59.27
2019-02-26T07:20:50.435Z,58.7
2019-02-26T07:22:10.540Z,59.08
2019-02-26T07:23:23.776Z,59.01
2019-02-26T07:24:44.308Z,58.83
2019-02-26T07:25:59.399Z,59.11
2019-02-26T07:27:13.363Z,58.54
2019-02-26T07:28:26.826Z,58.83
2019-02-26T07:29:42.450Z,58.44
2019-02-26T07:31:00.371Z,58
2019-02-26T07:32:21.978Z,56.76
2019-02-26T07:33:36.954Z,54.91
2019-02-26T07:34:52.101Z,53.61
2019-02-26T07:36:06.110Z,51.85
2019-02-26T07:37:18.275Z,50.18
2019-02-26T07:38:30.138Z,48.78
2019-02-26T07:39:54.434Z,46.61
2019-02-26T07:41:08.744Z,45.89
2019-02-26T07:42:21.236Z,45.15
2019-02-26T07:43:41.694Z,43.92
2019-02-26T07:44:59.397Z,42.99
2019-02-26T07:46:21.435Z,41.74
2019-02-26T07:47:36.106Z,41.31
2019-02-26T07:48:53.787Z,40.64
2019-02-26T07:50:14.530Z,39.6
2019-02-26T07:51:25.300Z,38.85
2019-02-26T07:52:42.988Z,38.1
2019-02-26T07:54:01.306Z,37.07
2019-02-26T07:55:16.850Z,35.93
2019-02-26T07:56:30.609Z,35.36
2019-02-26T07:59:06.813Z,34.22
2019-02-26T08:00:47.766Z,33.26
2019-02-26T08:04:40.738Z,32.21
2019-02-26T08:05:51.443Z,32.12
2019-02-26T08:07:04.422Z,32.03
2019-02-26T08:08:18.709Z,31.56
2019-02-26T08:09:29.129Z,30.87
2019-02-26T08:10:42.746Z,31.18
2019-02-26T08:11:58.628Z,30.98
2019-02-26T08:13:16.665Z,30.5
2019-02-26T08:14:29.823Z,29.94
2019-02-26T08:15:42.778Z,29.55
2019-02-26T08:16:58.647Z,29.46
2019-02-26T08:18:11.694Z,29.27
2019-02-26T08:19:21.579Z,29.18
2019-02-26T08:20:40.903Z,29.08
2019-02-26T08:21:54.840Z,29.08
2019-02-26T08:23:05.113Z,28.81
2019-02-26T08:26:49.952Z,27.38
2019-02-26T08:28:03.197Z,27.49
2019-02-26T08:29:15.002Z,26.72
2019-02-26T08:30:28.676Z,26.43
2019-02-26T08:31:42.508Z,26.33
2019-02-26T08:33:07.267Z,25.75
2019-02-26T08:34:18.310Z,26.06
2019-02-26T08:35:28.228Z,25.76
2019-02-26T08:36:38.341Z,25.86
2019-02-26T08:37:54.728Z,25.48
2019-02-26T08:39:08.925Z,25.19
2019-02-26T08:40:21.376Z,25.09
2019-02-26T08:41:31.541Z,24.8
2019-02-26T08:42:41.670Z,24.72
2019-02-26T08:43:56.288Z,24.8
2019-02-26T08:45:06.438Z,24.81
2019-02-26T08:46:21.479Z,24.52
2019-02-26T08:47:31.341Z,24.62
2019-02-26T08:48:45.929Z,24.44
2019-02-26T08:49:58.923Z,24.24
2019-02-26T08:51:21.466Z,23.66
2019-02-26T08:52:31.990Z,23.86
2019-02-26T08:53:44.337Z,23.66
2019-02-26T08:55:00.295Z,23.76
2019-02-26T08:56:15.517Z,23.86
2019-02-26T08:57:31.413Z,23.66
2019-02-26T08:58:45.962Z,23.76
2019-02-26T09:01:10.334Z,24.43
2019-02-26T09:02:21.592Z,23.38
2019-02-26T09:03:40.282Z,24.63
2019-02-26T09:04:53.537Z,24.82
2019-02-26T09:06:16.254Z,24.24
2019-02-26T09:07:28.731Z,24.24
2019-02-26T09:08:43.092Z,24.16
2019-02-26T09:09:57.493Z,24.26
2019-02-26T09:11:13.500Z,24.45
2019-02-26T09:12:27.100Z,24.45
2019-02-26T09:13:41.153Z,24.45
2019-02-26T09:14:52.489Z,24.45
2019-02-26T09:16:05.983Z,23.79
2019-02-26T09:17:24.225Z,23.59
2019-02-26T09:18:44.952Z,24.07
2019-02-26T09:21:25.418Z,24.15
2019-02-26T09:22:40.523Z,24.65
2019-02-26T09:24:04.651Z,24.73
2019-02-26T09:25:15.624Z,24.73
2019-02-26T09:26:34.296Z,24.73
2019-02-26T09:27:45.572Z,24.73
2019-02-26T09:28:57.950Z,25.1
2019-02-26T09:30:11.785Z,24.73
2019-02-26T09:31:24.776Z,24.92
2019-02-26T09:32:39.334Z,24.63
2019-02-26T09:33:52.545Z,24.82
2019-02-26T09:35:06.517Z,24.54
2019-02-26T09:36:21.411Z,24.63
2019-02-26T09:37:35.880Z,24.82
2019-02-26T09:38:51.401Z,24.54
2019-02-26T09:40:04.859Z,24.26
2019-02-26T09:41:18.918Z,23.58
2019-02-26T09:42:32.436Z,23.87
2019-02-26T09:43:45.681Z,23.68
2019-02-26T09:45:00.058Z,23.96
2019-02-26T09:46:16.309Z,24.24
2019-02-26T09:47:31.383Z,24.26
2019-02-26T09:48:46.127Z,23.98
2019-02-26T09:49:58.518Z,23.23
2019-02-26T09:51:12.427Z,22.95
2019-02-26T09:52:30.110Z,21.89
2019-02-26T09:53:40.971Z,22.57
2019-02-26T09:54:55.829Z,22.48
2019-02-26T09:56:05.966Z,21.43
2019-02-26T09:57:20.423Z,21.14
2019-02-26T09:58:37.340Z,21.24
2019-02-26T09:59:57.315Z,21.15
2019-02-26T10:01:13.445Z,20.37
2019-02-26T10:02:28.743Z,19.7
2019-02-26T10:03:41.587Z,19.42
2019-02-26T10:04:54.254Z,18.74
2019-02-26T10:06:04.340Z,19.12
2019-02-26T10:07:18.677Z,18.35
2019-02-26T10:08:33.093Z,18.82
2019-02-26T10:09:48.524Z,19.11
2019-02-26T10:11:02.234Z,19.02
2019-02-26T10:12:15.893Z,18.83
2019-02-26T10:13:28.139Z,18.25
2019-02-26T10:14:40.842Z,18.64
2019-02-26T10:15:56.726Z,18.35
2019-02-26T10:17:17.125Z,17.97
2019-02-26T10:18:32.883Z,18.15
2019-02-26T10:19:45.425Z,18.15
2019-02-26T10:20:57.976Z,18.43
2019-02-26T10:22:15.196Z,18.24
2019-02-26T10:23:28.484Z,18.33
2019-02-26T10:24:43.036Z,17.76
2019-02-26T10:26:00.165Z,18.23
2019-02-26T10:27:16.770Z,18.32
2019-02-26T10:28:26.894Z,19.09
2019-02-26T10:29:49.769Z,18.8
2019-02-26T10:31:07.566Z,19.68
2019-02-26T10:32:19.422Z,19.86
2019-02-26T10:33:38.006Z,19.96
2019-02-26T10:34:53.920Z,19.78
2019-02-26T10:36:08.399Z,19.58
2019-02-26T10:37:23.867Z,19.68
2019-02-26T10:38:41.015Z,19.59
2019-02-26T10:39:55.222Z,19.01
2019-02-26T10:41:07.524Z,18.63
2019-02-26T10:42:20.965Z,17.84
2019-02-26T10:43:31.427Z,17.65
2019-02-26T10:44:45.164Z,17.74
2019-02-26T10:45:57.359Z,17.65
2019-02-26T10:47:10.695Z,17.94
2019-02-26T10:48:24.971Z,17.46
2019-02-26T10:49:35.909Z,16.29
2019-02-26T10:50:52.121Z,16.97
2019-02-26T10:52:02.359Z,17.07
2019-02-26T10:53:22.514Z,17.54
2019-02-26T10:54:40.309Z,17.26
2019-02-26T10:55:54.198Z,17.46
2019-02-26T10:57:11.203Z,16.98
2019-02-26T10:58:24.240Z,17.08
2019-02-26T10:59:35.015Z,16.9
2019-02-26T11:00:50.445Z,16.02
2019-02-26T11:02:08.306Z,16.61
2019-02-26T11:03:25.464Z,16.31
2019-02-26T11:04:49.421Z,16.61
2019-02-26T11:06:04.717Z,16.71
2019-02-26T11:07:26.252Z,16.32
2019-02-26T11:08:43.096Z,16.13
2019-02-26T11:10:01.458Z,16.13
2019-02-26T11:11:16.002Z,16.41
2019-02-26T11:12:31.534Z,16.61
2019-02-26T11:13:50.941Z,16.71
2019-02-26T11:15:06.713Z,16.61
2019-02-26T11:16:27.946Z,17.19
2019-02-26T11:17:47.502Z,16.61
2019-02-26T11:19:04.291Z,17.3
2019-02-26T11:20:18.775Z,16.81
2019-02-26T11:21:37.421Z,16.43
2019-02-26T11:22:50.058Z,16.43
2019-02-26T11:24:08.621Z,15.94
2019-02-26T11:25:24.158Z,16.24
2019-02-26T11:26:38.783Z,16.14
2019-02-26T11:27:51.423Z,15.65
2019-02-26T11:29:05.349Z,15.94
2019-02-26T11:30:17.382Z,15.55
2019-02-26T11:31:36.448Z,15.74
2019-02-26T11:32:55.998Z,16.13
2019-02-26T11:34:18.106Z,16.13
2019-02-26T11:35:30.518Z,16.02
2019-02-26T11:36:44.089Z,16.31
2019-02-26T11:37:59.506Z,16.12
2019-02-26T11:39:12.117Z,16.22
2019-02-26T11:40:27.994Z,15.64
2019-02-26T11:41:39.848Z,15.74
2019-02-26T11:42:53.856Z,15.25
2019-02-26T11:44:20.510Z,15.05
2019-02-26T11:45:39.493Z,14.47
2019-02-26T11:46:56.252Z,15.14
2019-02-26T11:48:08.968Z,15.23
2019-02-26T11:49:22.294Z,15.72
2019-02-26T11:50:34.148Z,15.04
2019-02-26T11:51:47.518Z,15.04
2019-02-26T11:52:57.730Z,15.52
2019-02-26T11:54:12.425Z,15.42
2019-02-26T11:55:29.160Z,15.42
2019-02-26T11:56:47.762Z,15.61
2019-02-26T11:58:05.579Z,15.71
2019-02-26T11:59:24.824Z,15.41
2019-02-26T12:00:46.947Z,15.89
2019-02-26T12:02:03.869Z,16.19
2019-02-26T12:03:15.755Z,15.99
2019-02-26T12:05:10.860Z,15.59
2019-02-26T12:06:21.614Z,15.79
2019-02-26T12:07:34.964Z,16.17
2019-02-26T12:08:49.909Z,15.78
2019-02-26T12:10:06.392Z,16.36
2019-02-26T12:11:23.457Z,16.85
2019-02-26T12:12:36.996Z,16.66
2019-02-26T12:13:50.067Z,16.85
2019-02-26T12:15:03.410Z,16.17
2019-02-26T12:16:18.316Z,16.07
2019-02-26T12:17:31.463Z,16.46
2019-02-26T12:18:44.976Z,16.17
2019-02-26T12:20:00.391Z,16.56
2019-02-26T12:21:13.384Z,16.66
2019-02-26T12:22:27.779Z,16.56
2019-02-26T12:23:43.963Z,16.85
2019-02-26T12:25:00.000Z,17.14
2019-02-26T12:26:21.678Z,17.24
2019-02-26T12:27:40.346Z,17.14
2019-02-26T12:28:57.013Z,17.24
2019-02-26T12:30:13.246Z,17.24
2019-02-26T12:31:33.324Z,17.14
2019-02-26T12:32:50.503Z,16.66
2019-02-26T12:34:03.042Z,16.18
2019-02-26T12:35:20.515Z,16.57
2019-02-26T12:36:35.840Z,16.77
2019-02-26T12:37:47.169Z,16.86
2019-02-26T12:39:24.810Z,16.78
2019-02-26T12:40:43.398Z,16.49
2019-02-26T12:41:58.808Z,16.09
2019-02-26T12:43:16.195Z,15.81
2019-02-26T12:44:28.946Z,15.89
